Time;durP1;ratioP1;P1;durP2;ratioP2;P2;SDS_P1;SDS_P2;PMS_P1;PMS_P2;Temp;Humidity;BMP_temperature;BMP_pressure;BME280_temperature;BME280_humidity;BME280_pressure;Samples;Min_cycle;Max_cycle;Signal;HPM_P1;HPM_P2
2023/08/23 00:02:14;;;;;;;11.10;8.80;;;;;;;25.24;53.79;93111.56;2067574;69;20226;-78
2023/08/23 00:04:49;;;;;;;11.27;8.65;;;;;;;25.14;54.85;93117.19;2068338;69;20155;-77
2023/08/23 00:07:22;;;;;;;11.35;8.75;;;;;;;25.17;56.52;93112.19;2061717;69;20207;-79
2023/08/23 00:09:51;;;;;;;9.95;8.43;;;;;;;25.22;55.42;93111.53;2061355;69;20141;-79
2023/08/23 00:12:21;;;;;;;;;;;;;;;25.33;55.15;93110.22;2061329;69;20164;-78
2023/08/23 00:14:47;;;;;;;12.20;8.40;;;;;;;25.23;54.74;93104.34;2061546;69;20046;-78
2023/08/23 00:21:04;;;;;;;10.25;7.90;;;;;;;25.35;52.81;93109.53;2060963;69;20199;-79
2023/08/23 00:27:25;;;;;;;11.27;8.63;;;;;;;25.29;53.78;93113.06;2061318;69;20184;-79
2023/08/23 00:29:52;;;;;;;12.90;8.52;;;;;;;25.41;54.21;93117.53;2061306;69;20730;-79
2023/08/23 00:32:19;;;;;;;11.65;8.45;;;;;;;25.38;52.44;93113.88;2061169;69;20134;-79
2023/08/23 00:34:45;;;;;;;13.90;8.60;;;;;;;25.40;52.86;93113.19;2060777;69;20211;-77
2023/08/23 00:41:00;;;;;;;11.77;8.80;;;;;;;25.37;52.85;93112.44;2060910;69;20626;-77
2023/08/23 00:43:26;;;;;;;12.63;8.65;;;;;;;25.13;52.79;93104.22;2061057;69;20196;-79
2023/08/23 00:45:53;;;;;;;14.13;8.55;;;;;;;25.17;53.23;93112.91;2061416;69;20161;-79
2023/08/23 00:48:20;;;;;;;13.35;8.68;;;;;;;25.13;53.58;93109.25;2060684;69;20236;-77
2023/08/23 00:50:46;;;;;;;13.00;8.45;;;;;;;25.07;53.62;93116.41;2061241;69;20159;-78
2023/08/23 00:53:14;;;;;;;10.15;8.48;;;;;;;25.14;54.40;93113.59;2061671;69;20508;-77
2023/08/23 00:55:52;;;;;;;11.07;8.25;;;;;;;25.20;53.85;93113.66;2061337;69;20214;-79
2023/08/23 00:58:22;;;;;;;10.45;8.27;;;;;;;25.17;54.17;93110.03;2061116;69;20556;-78
2023/08/23 01:01:21;;;;;;;10.90;8.60;;;;;;;25.15;54.24;93112.16;2061703;69;20141;-79
2023/08/23 01:08:24;;;;;;;12.68;8.20;;;;;;;24.98;56.00;93116.97;2060046;69;20168;-79
2023/08/23 01:11:01;;;;;;;11.93;9.18;;;;;;;24.78;53.95;93091.47;2054944;69;20544;-80
2023/08/23 01:13:47;;;;;;;10.77;8.80;;;;;;;24.77;54.75;93108.03;2060786;69;20619;-80
2023/08/23 01:16:16;;;;;;;10.70;8.73;;;;;;;24.80;54.07;93106.63;2060132;69;20239;-79
2023/08/23 01:18:43;;;;;;;12.45;8.88;;;;;;;24.68;54.07;93108.63;2057476;69;20152;-79
2023/08/23 01:21:11;;;;;;;11.32;9.43;;;;;;;24.66;54.90;93117.22;2060907;69;20153;-78
2023/08/23 01:27:28;;;;;;;9.90;8.30;;;;;;;24.67;54.47;93119.41;2060706;69;20140;-78
2023/08/23 01:29:57;;;;;;;14.50;8.80;;;;;;;24.37;56.06;93093.03;2058258;69;20583;-78
2023/08/23 01:32:42;;;;;;;14.70;8.65;;;;;;;24.48;57.06;93117.69;2058000;69;20153;-78
2023/08/23 01:35:12;;;;;;;10.45;8.45;;;;;;;24.58;56.13;93118.56;2058338;69;20203;-79
2023/08/23 01:37:40;;;;;;;10.77;8.65;;;;;;;24.55;54.84;93125.69;2060545;69;20157;-80
2023/08/23 01:40:09;;;;;;;11.82;8.40;;;;;;;24.27;55.59;93125.94;2060914;69;20489;-80
2023/08/23 01:42:37;;;;;;;11.40;8.80;;;;;;;24.55;55.12;93119.22;2064695;69;20601;-80
2023/08/23 01:45:04;;;;;;;15.40;9.10;;;;;;;24.55;55.34;93116.34;2064550;69;20273;-78
2023/08/23 01:47:30;;;;;;;14.57;8.80;;;;;;;24.49;56.27;93111.22;2064118;69;20598;-78
2023/08/23 01:49:55;;;;;;;12.27;8.50;;;;;;;24.44;56.36;93118.34;2065005;69;20137;-78
2023/08/23 01:52:22;;;;;;;10.77;8.13;;;;;;;24.37;56.12;93127.56;2065127;69;20149;-79
2023/08/23 01:54:49;;;;;;;13.45;8.20;;;;;;;24.39;56.18;93118.97;2067405;69;20221;-79
2023/08/23 01:57:15;;;;;;;13.30;8.57;;;;;;;24.33;55.40;93116.69;2063964;69;20176;-80
2023/08/23 01:59:40;;;;;;;10.15;8.73;;;;;;;24.42;54.99;93114.69;2064464;69;20222;-80
2023/08/23 02:02:06;;;;;;;10.55;8.80;;;;;;;24.35;55.68;93113.84;2064981;69;20203;-80
2023/08/23 02:04:32;;;;;;;14.27;8.70;;;;;;;24.44;54.86;93111.84;2064666;69;20176;-79
2023/08/23 02:06:57;;;;;;;11.65;8.98;;;;;;;24.49;55.06;93116.25;2066937;69;20159;-79
2023/08/23 02:09:23;;;;;;;11.48;8.90;;;;;;;24.45;55.42;93110.44;2064980;69;20608;-79
2023/08/23 02:15:37;;;;;;;14.82;8.82;;;;;;;24.20;56.25;93109.28;2064657;69;20471;-78
2023/08/23 02:18:02;;;;;;;11.30;8.63;;;;;;;24.28;56.37;93110.16;2064588;69;20148;-78
2023/08/23 02:24:15;;;;;;;13.27;8.45;;;;;;;24.19;56.94;93104.94;2065362;69;20611;-79
2023/08/23 02:26:41;;;;;;;11.93;8.35;;;;;;;24.20;55.75;93103.53;2065144;69;20138;-78
2023/08/23 02:32:53;;;;;;;12.90;8.00;;;;;;;24.09;56.48;93097.59;2064588;69;20124;-79
2023/08/23 02:35:19;;;;;;;12.38;8.25;;;;;;;24.11;57.43;93091.19;2064077;69;20141;-79
2023/08/23 02:37:45;;;;;;;13.60;8.68;;;;;;;24.04;58.44;93098.22;2065026;69;20148;-78
2023/08/23 02:40:14;;;;;;;13.38;8.68;;;;;;;24.10;57.08;93089.72;2067181;69;20650;-77
2023/08/23 02:42:40;;;;;;;11.02;8.38;;;;;;;24.10;56.78;93101.22;2064560;69;20156;-79
2023/08/23 02:45:06;;;;;;;11.52;8.65;;;;;;;24.08;57.12;93099.03;2061785;69;20165;-79
2023/08/23 02:47:31;;;;;;;13.38;8.23;;;;;;;23.98;57.24;93101.75;2064911;69;20249;-79
2023/08/23 02:49:57;;;;;;;12.45;8.48;;;;;;;23.91;57.23;93100.16;2064064;69;20164;-79
2023/08/23 02:52:22;;;;;;;13.23;9.60;;;;;;;23.91;56.79;93103.03;2064544;69;20159;-79
2023/08/23 02:54:50;;;;;;;11.85;9.02;;;;;;;23.77;57.43;93097.78;2064984;69;20147;-79
2023/08/23 02:57:15;;;;;;;13.32;9.15;;;;;;;23.71;56.87;93105.56;2064156;69;20145;-80
2023/08/23 02:59:41;;;;;;;12.38;9.30;;;;;;;23.90;56.00;93115.25;2064385;69;20171;-79
2023/08/23 03:02:06;;;;;;;15.15;8.68;;;;;;;23.64;57.23;93110.47;2066682;69;20264;-79
2023/08/23 03:04:32;;;;;;;10.27;8.63;;;;;;;23.74;56.35;93104.91;2064212;69;20160;-79
2023/08/23 03:06:57;;;;;;;13.80;8.85;;;;;;;23.70;56.95;93107.00;2066132;69;20176;-79
2023/08/23 03:09:23;;;;;;;12.95;8.38;;;;;;;23.58;57.29;93093.81;2064814;69;20140;-80
2023/08/23 03:11:48;;;;;;;10.52;8.82;;;;;;;23.55;57.54;93092.34;2067415;69;20218;-79
2023/08/23 03:14:14;;;;;;;11.93;9.10;;;;;;;23.71;56.71;93091.19;2068229;69;20148;-80
2023/08/23 03:16:40;;;;;;;14.30;9.07;;;;;;;23.67;55.46;93085.38;2068244;69;20156;-80
2023/08/23 03:19:06;;;;;;;11.98;8.88;;;;;;;23.72;55.51;93095.53;2068030;69;20151;-80
2023/08/23 03:21:32;;;;;;;10.73;8.10;;;;;;;23.82;55.14;93096.44;2067677;69;20149;-80
2023/08/23 03:23:57;;;;;;;10.93;7.90;;;;;;;23.61;56.40;93093.88;2065075;69;20133;-81
2023/08/23 03:26:23;;;;;;;11.88;8.45;;;;;;;23.75;56.23;93094.16;2064964;69;20152;-81
2023/08/23 03:28:48;;;;;;;11.88;9.00;;;;;;;23.44;57.12;93093.56;2068508;69;20132;-80
2023/08/23 03:31:15;;;;;;;17.30;8.75;;;;;;;23.45;57.16;93086.38;2064996;69;20139;-81
2023/08/23 03:33:43;;;;;;;13.93;9.20;;;;;;;23.59;56.92;93095.28;2067900;69;20144;-81
2023/08/23 03:36:09;;;;;;;13.75;9.15;;;;;;;23.54;55.71;93096.59;2068157;69;20640;-80
2023/08/23 03:38:34;;;;;;;14.15;8.90;;;;;;;23.29;57.27;93081.06;2065048;69;20198;-80
2023/08/23 03:41:00;;;;;;;10.73;8.60;;;;;;;23.42;56.49;93095.66;2068114;69;20248;-80
2023/08/23 03:43:26;;;;;;;10.35;9.07;;;;;;;23.37;56.15;93097.72;2065184;69;20199;-80
2023/08/23 03:45:52;;;;;;;10.90;8.73;;;;;;;23.45;54.73;93095.00;2067563;69;20148;-80
2023/08/23 03:48:18;;;;;;;12.02;9.80;;;;;;;23.50;55.96;93098.66;2068414;69;20144;-81
2023/08/23 03:50:43;;;;;;;14.43;8.63;;;;;;;23.48;56.42;93093.63;2065010;69;20144;-80
2023/08/23 03:53:09;;;;;;;11.30;8.55;;;;;;;23.17;57.30;93100.91;2068097;69;20147;-80
2023/08/23 03:55:36;;;;;;;10.38;8.88;;;;;;;23.37;56.88;93091.25;2067524;69;20243;-81
2023/08/23 03:58:04;;;;;;;11.30;8.70;;;;;;;23.34;57.24;93091.22;2064748;69;20354;-81
2023/08/23 04:00:31;;;;;;;11.35;8.82;;;;;;;23.43;57.41;93094.97;2064910;69;20267;-80
2023/08/23 04:02:57;;;;;;;11.45;8.20;;;;;;;23.43;55.97;93092.09;2068267;69;20255;-81
2023/08/23 04:05:23;;;;;;;9.10;8.07;;;;;;;23.25;57.44;93098.22;2068245;69;20150;-80
2023/08/23 04:07:48;;;;;;;11.63;8.15;;;;;;;23.28;55.99;93090.38;2068326;69;20153;-80
2023/08/23 04:10:14;;;;;;;10.02;8.98;;;;;;;23.39;56.32;93108.53;2068126;69;20141;-79
2023/08/23 04:12:39;;;;;;;12.38;8.68;;;;;;;23.44;55.78;93102.16;2067547;69;20583;-80
2023/08/23 04:15:06;;;;;;;9.73;8.73;;;;;;;23.24;57.77;93090.28;2068196;69;20135;-80
2023/08/23 04:17:32;;;;;;;13.73;8.60;;;;;;;23.35;56.88;93091.94;2068523;69;20615;-80
2023/08/23 04:19:58;;;;;;;10.30;8.00;;;;;;;23.43;55.98;93092.09;2067688;69;20172;-80
2023/08/23 04:22:24;;;;;;;10.30;8.43;;;;;;;23.27;57.49;93083.88;2067862;69;20176;-80
2023/08/23 04:24:51;;;;;;;9.65;8.23;;;;;;;23.24;56.39;93093.88;2064370;69;20155;-80
2023/08/23 04:27:19;;;;;;;11.68;8.60;;;;;;;23.23;56.86;93094.56;2064561;69;20141;-80
2023/08/23 04:29:45;;;;;;;12.93;8.38;;;;;;;23.32;56.42;93102.66;2064963;69;20272;-80
2023/08/23 04:32:12;;;;;;;11.77;8.00;;;;;;;23.17;58.30;93103.78;2064963;69;20385;-80
2023/08/23 04:34:38;;;;;;;9.52;8.05;;;;;;;23.32;57.11;93099.81;2064641;69;20674;-79
2023/08/23 04:37:06;;;;;;;13.32;9.15;;;;;;;23.06;57.05;93108.59;2065026;69;20172;-78
2023/08/23 04:39:33;;;;;;;13.38;8.43;;;;;;;23.18;58.12;93093.75;2068285;69;20137;-80
2023/08/23 04:41:58;;;;;;;10.35;7.93;;;;;;;23.08;58.27;93088.53;2064849;69;20160;-81
2023/08/23 04:48:13;;;;;;;13.50;8.57;;;;;;;23.16;57.09;93099.47;2068337;69;20156;-81
2023/08/23 04:50:38;;;;;;;11.32;8.20;;;;;;;23.14;56.71;93090.06;2064801;69;20129;-81
2023/08/23 04:53:04;;;;;;;11.52;8.80;;;;;;;23.28;55.31;93099.72;2067825;69;20156;-83
2023/08/23 04:55:31;;;;;;;11.80;8.07;;;;;;;23.26;57.07;93101.81;2067639;69;20691;-80
2023/08/23 04:57:56;;;;;;;10.65;8.30;;;;;;;23.17;56.68;93100.91;2068406;69;20598;-85
2023/08/23 05:00:24;;;;;;;10.43;8.85;;;;;;;23.19;56.65;93103.13;2064721;69;20217;-81
2023/08/23 05:02:49;;;;;;;12.10;8.20;;;;;;;23.18;57.49;93101.63;2064585;69;20152;-82
2023/08/23 05:05:16;;;;;;;10.90;8.25;;;;;;;23.19;56.30;93106.00;2064920;69;20527;-84
2023/08/23 05:07:42;;;;;;;9.57;8.23;;;;;;;23.21;57.31;93106.03;2064805;69;20137;-84
2023/08/23 05:10:09;;;;;;;14.25;8.07;;;;;;;23.11;57.91;93105.81;2068054;69;20149;-83
2023/08/23 05:12:34;;;;;;;13.27;9.85;;;;;;;23.08;56.55;93122.25;2068295;69;20148;-83
2023/08/23 05:15:00;;;;;;;15.23;9.20;;;;;;;23.18;56.48;93116.00;2068350;69;20144;-83
2023/08/23 05:17:26;;;;;;;12.25;9.60;;;;;;;23.04;57.72;93120.03;2065016;69;20155;-84
2023/08/23 05:19:51;;;;;;;11.68;8.90;;;;;;;23.02;57.97;93122.88;2068362;69;20174;-83
2023/08/23 05:22:17;;;;;;;10.30;8.13;;;;;;;22.96;57.04;93125.63;2064475;69;20144;-82
2023/08/23 05:24:43;;;;;;;9.55;8.50;;;;;;;23.00;57.35;93128.59;2064740;69;20535;-84
2023/08/23 05:27:09;;;;;;;11.57;7.78;;;;;;;23.13;57.59;93129.53;2064723;69;20149;-85
2023/08/23 05:29:36;;;;;;;12.02;8.68;;;;;;;23.01;57.21;93123.56;2065006;69;20169;-84
2023/08/23 05:32:01;;;;;;;14.00;8.40;;;;;;;23.16;57.08;93133.94;2064498;69;20196;-83
2023/08/23 05:34:27;;;;;;;12.52;7.88;;;;;;;23.25;56.58;93134.81;2067669;69;20141;-83
2023/08/23 05:36:52;;;;;;;11.07;7.72;;;;;;;23.18;58.74;93133.22;2068056;69;20155;-82
2023/08/23 05:39:19;;;;;;;9.98;8.18;;;;;;;23.16;57.21;93130.34;2065689;69;20160;-84
2023/08/23 05:41:45;;;;;;;11.88;8.00;;;;;;;23.09;57.57;93120.84;2068106;69;20675;-83
2023/08/23 05:44:11;;;;;;;12.13;7.90;;;;;;;23.16;57.38;93113.09;2065766;69;20159;-84
2023/08/23 05:46:36;;;;;;;9.15;7.60;;;;;;;23.31;57.97;93129.91;2068229;69;20615;-84
2023/08/23 05:49:02;;;;;;;13.43;7.50;;;;;;;23.33;56.74;93121.34;2068865;69;20618;-84
2023/08/23 05:51:27;;;;;;;12.50;8.50;;;;;;;23.32;57.11;93131.41;2068490;69;20179;-82
2023/08/23 05:53:53;;;;;;;10.35;7.57;;;;;;;23.28;56.80;93131.31;2068963;69;20144;-83
2023/08/23 05:56:18;;;;;;;10.88;7.88;;;;;;;23.25;56.83;93117.59;2069110;69;20594;-82
2023/08/23 05:58:44;;;;;;;9.02;7.57;;;;;;;23.25;57.11;93120.47;2068685;69;20151;-83
2023/08/23 06:01:10;;;;;;;9.57;7.40;;;;;;;22.91;55.95;93103.25;2068667;69;20140;-82
2023/08/23 06:03:36;;;;;;;10.77;7.88;;;;;;;23.21;56.07;93123.97;2068657;69;20148;-82
2023/08/23 06:06:02;;;;;;;9.73;7.63;;;;;;;23.36;55.96;93124.25;2068752;69;20627;-85
2023/08/23 06:08:28;;;;;;;13.10;6.85;;;;;;;23.39;57.70;93125.75;2069033;69;20148;-87
2023/08/23 06:10:53;;;;;;;10.50;7.43;;;;;;;23.42;57.75;93128.00;2068449;69;20210;-83
2023/08/23 06:13:19;;;;;;;10.55;7.30;;;;;;;23.34;57.66;93122.81;2068625;69;20125;-84
2023/08/23 06:15:46;;;;;;;9.65;7.30;;;;;;;23.41;55.59;93135.13;2068595;69;20224;-84
2023/08/23 06:18:11;;;;;;;8.60;7.40;;;;;;;23.47;56.39;93137.41;2068623;69;20167;-83
2023/08/23 06:20:38;;;;;;;8.55;7.53;;;;;;;23.56;56.27;93131.13;2068476;69;20141;-84
2023/08/23 06:23:04;;;;;;;12.27;7.90;;;;;;;23.53;56.38;93141.13;2068588;69;20139;-84
2023/08/23 06:25:30;;;;;;;10.20;7.88;;;;;;;23.36;55.44;93132.88;2068506;69;20152;-83
2023/08/23 06:27:56;;;;;;;11.88;8.23;;;;;;;23.43;57.18;93132.31;2068202;69;20785;-83
2023/08/23 06:30:22;;;;;;;10.95;7.05;;;;;;;23.71;58.04;93140.78;2068309;69;20176;-83
2023/08/23 06:32:48;;;;;;;9.63;7.53;;;;;;;23.75;57.33;93140.84;2068161;69;20559;-82
2023/08/23 06:35:15;;;;;;;11.30;7.25;;;;;;;23.88;58.21;93132.47;2068497;69;20160;-84
2023/08/23 06:37:41;;;;;;;9.00;7.03;;;;;;;23.93;56.88;93131.84;2068503;69;20180;-83
2023/08/23 06:40:10;;;;;;;10.68;8.27;;;;;;;23.81;54.84;93132.34;2068441;69;20215;-85
2023/08/23 06:42:35;;;;;;;12.88;7.68;;;;;;;23.84;55.32;93142.47;2068615;69;20132;-84
2023/08/23 06:45:02;;;;;;;10.40;7.78;;;;;;;23.93;55.34;93142.63;2068287;69;20164;-84
2023/08/23 06:47:27;;;;;;;12.20;7.50;;;;;;;24.18;53.34;93144.47;2068590;69;20634;-84
2023/08/23 06:49:53;;;;;;;10.43;7.88;;;;;;;24.04;53.50;93141.38;2068640;69;20196;-85
2023/08/23 06:52:19;;;;;;;11.15;8.00;;;;;;;24.14;53.11;93143.69;2068331;69;20148;-86
2023/08/23 06:54:44;;;;;;;9.13;7.13;;;;;;;24.47;51.28;93139.25;2068116;69;20165;-87
2023/08/23 06:57:10;;;;;;;10.27;7.05;;;;;;;24.75;53.20;93136.06;2067954;69;20152;-85
2023/08/23 06:59:35;;;;;;;10.25;6.90;;;;;;;25.09;53.79;93136.56;2068728;69;20148;-85
2023/08/23 07:02:01;;;;;;;9.48;7.15;;;;;;;25.31;54.41;93136.13;2068772;69;20175;-83
2023/08/23 07:04:27;;;;;;;11.05;7.60;;;;;;;25.42;52.83;93139.88;2068734;69;20153;-85
2023/08/23 07:06:52;;;;;;;15.52;8.38;;;;;;;25.31;52.52;93139.03;2068210;69;20156;-81
2023/08/23 07:09:18;;;;;;;10.43;7.90;;;;;;;25.58;51.63;93142.22;2068452;69;20137;-80
2023/08/23 07:11:43;;;;;;;12.18;7.97;;;;;;;25.78;52.52;93141.75;2068483;69;20624;-80
2023/08/23 07:17:56;;;;;;;11.13;7.88;;;;;;;26.59;49.18;93141.81;2068446;69;20187;-81
2023/08/23 07:20:22;;;;;;;9.45;7.53;;;;;;;26.80;50.31;93145.56;2068397;69;20144;-82
2023/08/23 07:22:48;;;;;;;8.15;7.13;;;;;;;26.87;51.07;93149.97;2068509;69;20140;-82
2023/08/23 07:25:14;;;;;;;10.52;7.38;;;;;;;27.03;49.56;93150.09;2068291;69;20155;-82
2023/08/23 07:27:39;;;;;;;11.30;7.40;;;;;;;26.93;48.40;93147.09;2068519;69;20136;-82
2023/08/23 07:30:05;;;;;;;9.10;7.40;;;;;;;26.89;47.11;93149.25;2068285;69;20144;-83
2023/08/23 07:32:32;;;;;;;8.23;7.15;;;;;;;27.00;48.98;93145.00;2068177;69;20136;-81
2023/08/23 07:35:00;;;;;;;8.90;7.30;;;;;;;26.75;49.94;93139.03;2068514;69;20603;-81
2023/08/23 07:37:27;;;;;;;10.32;7.63;;;;;;;26.98;49.20;93130.53;2068382;69;20143;-83
2023/08/23 07:39:53;;;;;;;8.00;7.03;;;;;;;27.47;49.22;93134.44;2068392;69;20172;-82
2023/08/23 07:42:18;;;;;;;12.18;7.40;;;;;;;27.32;47.44;93132.91;2068308;69;20135;-83
2023/08/23 07:44:44;;;;;;;10.32;8.00;;;;;;;27.62;47.12;93146.78;2068481;69;20156;-81
2023/08/23 07:47:10;;;;;;;10.30;7.57;;;;;;;27.37;47.72;93137.28;2068362;69;20140;-81
2023/08/23 07:49:35;;;;;;;9.85;8.02;;;;;;;27.71;46.82;93139.56;2068328;69;20493;-81
2023/08/23 07:52:01;;;;;;;11.50;7.28;;;;;;;28.01;45.91;93136.09;2068583;69;20164;-81
2023/08/23 07:54:27;;;;;;;14.00;7.55;;;;;;;28.34;45.68;93134.00;2068450;69;20172;-81
2023/08/23 07:56:52;;;;;;;10.07;7.15;;;;;;;28.65;45.33;93142.69;2068294;69;20577;-81
2023/08/23 07:59:18;;;;;;;9.32;7.60;;;;;;;29.10;43.33;93142.69;2065048;69;20184;-81
2023/08/23 08:01:43;;;;;;;8.98;7.50;;;;;;;29.01;43.75;93144.16;2068328;69;20156;-81
2023/08/23 08:04:09;;;;;;;11.27;7.18;;;;;;;29.33;42.73;93141.19;2068442;69;20148;-81
2023/08/23 08:06:34;;;;;;;7.90;7.10;;;;;;;29.27;42.64;93132.47;2068527;69;20222;-81
2023/08/23 08:09:00;;;;;;;7.88;6.80;;;;;;;29.58;42.04;93133.13;2068488;69;20493;-81
2023/08/23 08:11:26;;;;;;;8.65;6.90;;;;;;;29.85;41.94;93148.25;2068368;69;20140;-81
2023/08/23 08:13:51;;;;;;;11.13;6.80;;;;;;;30.11;40.41;93140.88;2068410;69;20195;-81
2023/08/23 08:16:17;;;;;;;7.75;6.78;;;;;;;30.27;39.21;93132.09;2068098;69;20152;-81
2023/08/23 08:18:45;;;;;;;8.15;6.47;;;;;;;30.19;37.91;93132.13;2067955;69;20156;-81
2023/08/23 08:21:11;;;;;;;7.90;7.10;;;;;;;29.54;40.67;93130.22;2067681;69;20235;-80
2023/08/23 08:23:36;;;;;;;10.20;6.68;;;;;;;29.18;40.97;93145.56;2068387;69;20248;-81
2023/08/23 08:26:04;;;;;;;12.18;6.70;;;;;;;29.01;44.31;93144.16;2068241;69;20148;-81
2023/08/23 08:28:29;;;;;;;7.47;6.63;;;;;;;29.12;45.45;93143.41;2068195;69;20171;-81
2023/08/23 08:30:55;;;;;;;8.15;6.47;;;;;;;29.05;46.43;93139.06;2068178;69;20164;-80
2023/08/23 08:37:08;;;;;;;7.97;6.78;;;;;;;28.54;47.52;93138.34;2068152;69;20216;-80
2023/08/23 08:39:34;;;;;;;8.18;6.80;;;;;;;28.54;47.95;93144.84;2068249;69;20156;-80
2023/08/23 08:41:59;;;;;;;7.53;6.70;;;;;;;28.44;47.95;93144.84;2068185;69;20236;-81
2023/08/23 08:44:25;;;;;;;7.20;6.50;;;;;;;28.49;48.11;93143.41;2068271;69;20133;-81
2023/08/23 08:46:51;;;;;;;10.90;7.10;;;;;;;28.33;48.31;93140.47;2068268;69;20187;-80
2023/08/23 08:49:17;;;;;;;9.88;7.20;;;;;;;28.31;48.82;93149.16;2068320;69;20168;-79
2023/08/23 08:51:47;;;;;;;8.30;7.30;;;;;;;28.63;49.33;93136.88;2068197;69;20136;-80
2023/08/23 08:58:01;;;;;;;11.35;7.55;;;;;;;30.06;44.93;93124.94;2068246;69;20620;-81
2023/08/23 09:00:27;;;;;;;9.40;7.65;;;;;;;30.39;43.45;93119.69;2068165;69;20153;-81
2023/08/23 09:02:54;;;;;;;8.20;7.20;;;;;;;31.04;42.52;93130.06;2068269;69;20140;-82
2023/08/23 09:05:21;;;;;;;9.27;7.80;;;;;;;30.03;42.12;93124.22;2068186;69;20140;-82
2023/08/23 09:07:47;;;;;;;7.88;7.18;;;;;;;31.02;40.05;93121.34;2065169;69;20692;-82
2023/08/23 09:10:14;;;;;;;7.82;7.05;;;;;;;31.67;39.46;93123.59;2067907;69;20238;-81
2023/08/23 09:12:39;;;;;;;8.45;7.50;;;;;;;31.99;37.62;93118.84;2068238;69;20152;-82
2023/08/23 09:15:05;;;;;;;10.85;7.22;;;;;;;32.43;38.55;93122.63;2068781;69;20604;-81
2023/08/23 09:17:35;;;;;;;9.23;7.72;;;;;;;32.89;36.81;93121.16;2068845;69;20260;-81
2023/08/23 09:20:06;;;;;;;9.52;6.45;;;;;;;33.04;36.72;93122.38;2068689;69;20238;-81
2023/08/23 09:22:33;;;;;;;7.97;7.13;;;;;;;33.46;35.62;93120.19;2068654;69;20164;-81
2023/08/23 09:25:00;;;;;;;10.65;7.00;;;;;;;33.35;34.05;93118.91;2068852;69;20213;-81
2023/08/23 09:27:26;;;;;;;7.70;6.95;;;;;;;33.74;34.92;93115.28;2068629;69;20153;-82
2023/08/23 09:29:59;;;;;;;7.88;6.40;;;;;;;34.03;34.38;93109.56;2068744;69;20195;-82
2023/08/23 09:32:27;;;;;;;10.10;6.68;;;;;;;34.27;34.53;93108.31;2068640;69;20136;-82
2023/08/23 09:34:53;;;;;;;9.93;7.03;;;;;;;33.56;35.24;93119.28;2068760;69;20224;-82
2023/08/23 09:37:18;;;;;;;11.15;7.60;;;;;;;34.12;34.57;93110.84;2068864;69;20642;-82
2023/08/23 09:39:44;;;;;;;6.88;6.10;;;;;;;34.74;32.97;93110.91;2068701;69;20155;-82
2023/08/23 09:45:59;;;;;;;9.45;6.30;;;;;;;33.39;33.71;93116.63;2068639;69;20499;-82
2023/08/23 09:48:30;;;;;;;8.73;6.38;;;;;;;33.34;34.54;93111.63;2068414;69;20247;-82
2023/08/23 09:50:56;;;;;;;9.95;6.43;;;;;;;34.30;33.21;93098.03;2068405;69;20318;-82
2023/08/23 09:53:27;;;;;;;6.88;6.18;;;;;;;35.53;31.70;93108.19;2068626;69;20201;-82
2023/08/23 09:55:53;;;;;;;8.57;6.55;;;;;;;35.40;31.39;93099.00;2068571;69;20152;-82
2023/08/23 09:58:20;;;;;;;7.75;6.15;;;;;;;35.97;31.92;93102.59;2068632;69;20621;-81
2023/08/23 10:00:49;;;;;;;6.90;6.20;;;;;;;35.99;30.49;93090.09;2068830;69;20156;-81
2023/08/23 10:03:15;;;;;;;8.85;5.65;;;;;;;36.24;29.96;93090.06;2068631;69;20145;-82
2023/08/23 10:05:42;;;;;;;6.15;5.55;;;;;;;36.32;30.13;93090.53;2068489;69;20148;-82
2023/08/23 10:08:09;;;;;;;7.60;6.90;;;;;;;36.79;31.29;93089.09;2068517;69;20157;-81
2023/08/23 10:10:36;;;;;;;7.53;6.78;;;;;;;35.80;32.11;93084.75;2068645;69;20137;-81
2023/08/23 10:13:05;;;;;;;7.20;6.47;;;;;;;36.38;30.61;93074.97;2068693;69;20247;-81
2023/08/23 10:15:38;;;;;;;7.15;6.30;;;;;;;36.72;30.30;93070.25;2068516;69;20234;-81
2023/08/23 10:18:08;;;;;;;6.93;5.80;;;;;;;38.11;27.68;93080.84;2068605;69;20504;-81
2023/08/23 10:20:36;;;;;;;6.88;5.30;;;;;;;37.81;26.76;93070.94;2068516;69;20137;-81
2023/08/23 10:23:22;;;;;;;7.22;5.50;;;;;;;38.09;27.83;93065.53;2068520;69;20608;-81
2023/08/23 10:25:48;;;;;;;8.07;5.82;;;;;;;39.03;27.14;93062.53;2068469;69;20596;-81
2023/08/23 10:28:18;;;;;;;9.98;5.65;;;;;;;38.42;27.14;93056.19;2068670;69;20141;-81
2023/08/23 10:30:46;;;;;;;7.22;5.20;;;;;;;39.17;26.71;93051.69;2068227;69;20613;-82
2023/08/23 10:33:17;;;;;;;6.15;5.15;;;;;;;39.73;25.93;93047.84;2068712;69;20161;-81
2023/08/23 10:35:47;;;;;;;6.40;5.35;;;;;;;39.90;27.17;93046.28;2068514;69;20403;-82
2023/08/23 10:38:14;;;;;;;8.18;5.30;;;;;;;39.00;26.63;93046.50;2068647;69;20160;-82
2023/08/23 10:40:42;;;;;;;5.13;4.63;;;;;;;39.50;25.16;93042.91;2068404;69;20152;-81
2023/08/23 10:43:22;;;;;;;6.05;4.30;;;;;;;40.21;25.31;93041.25;2068521;69;20205;-82
2023/08/23 10:46:03;;;;;;;5.55;4.60;;;;;;;43.37;21.61;93051.28;2068578;69;20152;-82
2023/08/23 10:48:29;;;;;;;5.93;4.30;;;;;;;43.53;21.01;93056.28;2068893;69;20210;-81
2023/08/23 10:50:55;;;;;;;6.53;4.18;;;;;;;44.58;19.84;93056.50;2068410;69;20149;-82
2023/08/23 10:53:21;;;;;;;7.05;4.43;;;;;;;44.69;20.57;93042.47;2068571;69;20153;-82
2023/08/23 10:55:48;;;;;;;4.65;4.25;;;;;;;45.46;20.21;93051.53;2068382;69;20145;-82
2023/08/23 10:58:15;;;;;;;4.45;4.13;;;;;;;43.08;20.57;93049.28;2067821;69;20212;-82
2023/08/23 11:00:42;;;;;;;4.50;3.80;;;;;;;41.30;25.02;93035.19;2067721;69;20157;-82
2023/08/23 11:03:10;;;;;;;5.30;3.90;;;;;;;43.67;22.08;93039.16;2067845;69;20210;-82
2023/08/23 11:05:36;;;;;;;5.18;3.95;;;;;;;43.97;20.52;93042.53;2067814;69;20149;-82
2023/08/23 11:08:02;;;;;;;7.13;4.28;;;;;;;43.28;22.03;93032.56;2067814;69;20200;-82
2023/08/23 11:10:28;;;;;;;5.88;3.75;;;;;;;43.06;20.94;93031.63;2067926;69;20634;-81
2023/08/23 11:12:54;;;;;;;4.88;4.00;;;;;;;43.89;21.02;93032.59;2068343;69;20218;-82
2023/08/23 11:15:21;;;;;;;4.65;4.15;;;;;;;42.25;22.03;93040.59;2068533;69;20140;-81
2023/08/23 11:17:46;;;;;;;6.57;4.65;;;;;;;41.79;23.47;93029.03;2068517;69;20528;-81
2023/08/23 11:20:13;;;;;;;5.88;4.40;;;;;;;41.37;24.26;93020.84;2068455;69;20153;-81
2023/08/23 11:22:39;;;;;;;9.20;4.60;;;;;;;40.61;24.68;93023.88;2068461;69;20137;-81
2023/08/23 11:25:05;;;;;;;5.00;4.32;;;;;;;40.20;25.54;93014.00;2068319;69;20206;-82
2023/08/23 11:27:30;;;;;;;5.30;4.80;;;;;;;39.35;25.29;93015.59;2068431;69;20147;-82
2023/08/23 11:29:58;;;;;;;5.75;4.80;;;;;;;38.28;26.60;93015.56;2068390;69;20148;-79
2023/08/23 11:32:24;;;;;;;6.50;4.65;;;;;;;45.54;22.18;93027.19;2064994;69;20128;-81
2023/08/23 11:38:39;;;;;;;7.18;4.30;;;;;;;48.74;18.64;93023.63;2068311;69;20127;-83
2023/08/23 11:41:08;;;;;;;5.40;4.30;;;;;;;47.70;17.97;93022.84;2068389;69;20152;-83
2023/08/23 11:43:33;;;;;;;4.60;4.20;;;;;;;50.13;16.21;93024.00;2068463;69;20148;-82
2023/08/23 11:45:59;;;;;;;4.90;4.40;;;;;;;52.44;15.03;93015.72;2068331;69;20160;-82
2023/08/23 11:48:25;;;;;;;6.03;3.55;;;;;;;51.67;14.33;93008.72;2068447;69;20214;-83
2023/08/23 11:50:51;;;;;;;7.13;3.72;;;;;;;53.03;13.44;93009.28;2068196;69;20204;-82
2023/08/23 11:53:16;;;;;;;6.32;3.30;;;;;;;53.97;13.85;93012.59;2068402;69;20623;-82
2023/08/23 11:55:42;;;;;;;4.80;3.60;;;;;;;52.67;13.49;92996.22;2068284;69;20230;-82
2023/08/23 11:58:09;;;;;;;4.43;3.42;;;;;;;54.87;13.83;93002.56;2065144;69;20136;-83
2023/08/23 12:00:35;;;;;;;8.27;3.22;;;;;;;50.07;15.72;92992.28;2068342;69;20147;-83
2023/08/23 12:03:01;;;;;;;7.07;3.35;;;;;;;45.77;19.22;92975.09;2068402;69;20519;-83
2023/08/23 12:05:29;;;;;;;7.82;3.50;;;;;;;44.95;19.98;92962.81;2068376;69;20159;-82
2023/08/23 12:07:54;;;;;;;5.45;3.42;;;;;;;42.78;21.42;92962.91;2068146;69;20144;-82
2023/08/23 12:10:21;;;;;;;7.55;3.40;;;;;;;49.90;18.41;92974.38;2068197;69;20179;-82
2023/08/23 12:12:46;;;;;;;5.43;3.83;;;;;;;51.95;15.79;92981.34;2068279;69;20141;-83
2023/08/23 12:15:12;;;;;;;9.70;4.05;;;;;;;53.42;15.27;92985.06;2068284;69;20630;-83
2023/08/23 12:17:38;;;;;;;8.30;3.78;;;;;;;57.01;11.84;93006.13;2068481;69;20152;-83
2023/08/23 12:20:04;;;;;;;6.30;3.70;;;;;;;57.05;13.35;93008.63;2068409;69;20156;-83
2023/08/23 12:22:31;;;;;;;6.10;3.60;;;;;;;52.37;14.20;92990.88;2068287;69;20235;-82